createdAt,value
2022-10-09T00:01:14.343Z,72.00
2022-10-09T00:03:43.440Z,72.00
2022-10-09T00:06:12.792Z,72.10
2022-10-09T00:08:40.474Z,72.10
2022-10-09T00:11:09.143Z,72.20
2022-10-09T00:13:35.916Z,72.20
2022-10-09T00:16:08.151Z,72.20
2022-10-09T00:18:35.160Z,72.30
2022-10-09T00:21:02.112Z,72.30
2022-10-09T00:23:28.739Z,72.30
2022-10-09T00:25:59.237Z,72.30
2022-10-09T00:28:28.023Z,72.30
2022-10-09T00:30:55.267Z,72.30
2022-10-09T00:33:22.103Z,73.00
2022-10-09T00:35:49.091Z,72.30
2022-10-09T00:38:15.852Z,72.30
2022-10-09T00:40:42.807Z,72.30
2022-10-09T00:43:18.513Z,72.30
2022-10-09T00:45:53.311Z,72.20
2022-10-09T00:48:20.420Z,72.20
2022-10-09T00:50:55.145Z,72.20
2022-10-09T00:53:23.968Z,72.20
2022-10-09T00:55:50.943Z,72.20
2022-10-09T00:58:17.583Z,72.20
2022-10-09T01:00:44.366Z,72.20
2022-10-09T01:03:11.103Z,72.20
2022-10-09T01:05:57.776Z,72.20
2022-10-09T01:08:35.092Z,72.60
2022-10-09T01:11:06.725Z,72.20
2022-10-09T01:13:40.578Z,72.20
2022-10-09T01:16:23.802Z,72.20
2022-10-09T01:19:10.922Z,72.20
2022-10-09T01:21:52.759Z,72.20
2022-10-09T01:24:34.101Z,72.20
2022-10-09T01:27:10.525Z,72.30
2022-10-09T01:29:49.424Z,72.30
2022-10-09T01:32:23.351Z,72.30
2022-10-09T01:34:51.860Z,72.30
2022-10-09T01:37:20.778Z,72.20
2022-10-09T01:39:48.538Z,72.30
2022-10-09T01:42:18.595Z,72.30
2022-10-09T01:44:45.376Z,72.30
2022-10-09T01:47:16.684Z,72.30
2022-10-09T01:50:09.547Z,72.30
2022-10-09T01:52:54.050Z,72.30
2022-10-09T01:55:48.439Z,72.30
2022-10-09T01:58:23.176Z,72.30
2022-10-09T02:01:16.815Z,72.30
2022-10-09T02:03:47.481Z,72.30
2022-10-09T02:06:16.075Z,72.20
2022-10-09T02:08:47.177Z,72.30
2022-10-09T02:11:15.136Z,72.30
2022-10-09T02:13:43.278Z,72.30
2022-10-09T02:16:17.351Z,72.40
2022-10-09T02:18:46.641Z,72.40
2022-10-09T02:21:25.920Z,72.40
2022-10-09T02:23:55.920Z,72.40
2022-10-09T02:26:22.999Z,72.50
2022-10-09T02:28:49.894Z,72.40
2022-10-09T02:31:24.703Z,72.40
2022-10-09T02:34:05.951Z,72.60
2022-10-09T02:36:33.597Z,72.60
2022-10-09T02:39:00.531Z,72.50
2022-10-09T02:41:27.609Z,72.60
2022-10-09T02:43:54.359Z,72.70
2022-10-09T02:46:21.884Z,72.80
2022-10-09T02:48:48.477Z,72.70
2022-10-09T02:51:15.130Z,72.70
2022-10-09T02:53:42.393Z,72.70
2022-10-09T02:56:09.153Z,72.80
2022-10-09T02:58:36.431Z,72.70
2022-10-09T03:01:03.409Z,72.80
2022-10-09T03:03:30.000Z,72.90
2022-10-09T03:06:11.604Z,73.70
2022-10-09T03:08:40.550Z,73.00
2022-10-09T03:11:08.251Z,72.90
2022-10-09T03:13:34.888Z,72.90
2022-10-09T03:16:12.799Z,72.90
2022-10-09T03:18:40.447Z,73.00
2022-10-09T03:21:12.390Z,73.00
2022-10-09T03:23:39.541Z,73.10
2022-10-09T03:26:09.172Z,73.20
2022-10-09T03:28:37.529Z,73.30
2022-10-09T03:31:04.759Z,73.20
2022-10-09T03:33:31.340Z,73.20
2022-10-09T03:35:57.880Z,73.20
2022-10-09T03:38:24.488Z,73.20
2022-10-09T03:40:51.108Z,73.30
2022-10-09T03:43:17.813Z,73.30
2022-10-09T03:45:44.434Z,73.40
2022-10-09T03:48:12.644Z,73.30
2022-10-09T03:50:40.268Z,73.40
2022-10-09T03:53:08.556Z,73.40
2022-10-09T03:55:35.428Z,73.40
2022-10-09T03:58:02.468Z,73.40
2022-10-09T04:00:29.333Z,73.50
2022-10-09T04:02:56.003Z,73.50
2022-10-09T04:05:23.147Z,73.60
2022-10-09T04:07:49.778Z,73.50
2022-10-09T04:10:16.507Z,73.70
2022-10-09T04:12:43.220Z,73.70
2022-10-09T04:15:10.483Z,73.70
2022-10-09T04:17:37.112Z,73.70
2022-10-09T04:20:03.991Z,73.90
2022-10-09T04:22:30.552Z,74.00
2022-10-09T04:24:57.093Z,74.00
2022-10-09T04:27:23.666Z,74.10
2022-10-09T04:29:50.211Z,74.10
2022-10-09T04:32:16.787Z,74.10
2022-10-09T04:34:43.331Z,74.10
2022-10-09T04:37:09.904Z,74.20
2022-10-09T04:39:36.477Z,74.20
2022-10-09T04:42:03.162Z,74.20
2022-10-09T04:44:29.767Z,74.20
2022-10-09T04:46:56.307Z,74.10
2022-10-09T04:49:22.842Z,74.30
2022-10-09T04:51:49.673Z,74.20
2022-10-09T04:54:16.295Z,74.40
2022-10-09T04:56:42.854Z,74.40
2022-10-09T04:59:09.427Z,74.30
2022-10-09T05:01:38.489Z,74.30
2022-10-09T05:04:05.291Z,74.10
2022-10-09T05:29:16.172Z,74.40
2022-10-09T05:31:48.427Z,74.40
2022-10-09T05:34:16.107Z,74.50
2022-10-09T05:36:42.682Z,74.60
2022-10-09T05:39:09.272Z,74.70
2022-10-09T05:41:35.834Z,74.80
2022-10-09T05:44:03.470Z,74.80
2022-10-09T05:46:30.626Z,74.90
2022-10-09T05:49:00.195Z,74.90
2022-10-09T05:51:31.711Z,74.90
2022-10-09T05:53:59.167Z,75.00
2022-10-09T05:56:28.617Z,75.00
2022-10-09T05:59:00.810Z,75.10
2022-10-09T06:01:31.331Z,75.00
2022-10-09T06:03:59.427Z,75.00
2022-10-09T06:06:29.023Z,75.00
2022-10-09T06:08:56.587Z,75.00
2022-10-09T06:11:31.455Z,75.00
2022-10-09T06:14:00.027Z,75.10
2022-10-09T06:16:29.067Z,75.10
2022-10-09T06:18:56.444Z,75.20
2022-10-09T06:21:23.752Z,75.20
2022-10-09T06:23:52.008Z,75.20
2022-10-09T06:26:19.418Z,75.20
2022-10-09T06:28:46.331Z,75.30
2022-10-09T06:31:15.209Z,75.30
2022-10-09T06:33:44.034Z,75.30
2022-10-09T06:36:16.213Z,75.40
2022-10-09T06:38:43.150Z,75.40
2022-10-09T06:41:15.529Z,75.50
2022-10-09T06:43:42.511Z,75.50
2022-10-09T06:46:11.650Z,75.50
2022-10-09T06:48:39.672Z,75.60
2022-10-09T06:51:15.076Z,75.70
2022-10-09T06:53:47.616Z,75.70
2022-10-09T06:56:15.070Z,75.90
2022-10-09T06:58:42.115Z,76.00
2022-10-09T07:01:10.613Z,75.90
2022-10-09T07:03:39.168Z,76.00
2022-10-09T07:06:11.728Z,75.90
2022-10-09T07:08:40.215Z,75.90
2022-10-09T07:11:27.800Z,76.00
2022-10-09T07:13:59.642Z,76.00
2022-10-09T07:16:29.318Z,75.90
2022-10-09T07:18:56.142Z,75.90
2022-10-09T07:22:15.596Z,75.90
2022-10-09T07:35:34.532Z,76.90
2022-10-09T07:38:27.910Z,76.20
2022-10-09T07:41:49.511Z,76.20
2022-10-09T08:01:19.671Z,76.50
2022-10-09T08:07:48.321Z,76.70
2022-10-09T08:10:50.577Z,76.70
2022-10-09T08:16:10.249Z,76.70
2022-10-09T08:32:18.808Z,76.90
2022-10-09T08:51:37.655Z,76.30
2022-10-09T09:13:11.264Z,64.30
2022-10-09T09:15:56.119Z,60.70
2022-10-09T09:18:22.725Z,57.80
2022-10-09T09:20:53.350Z,56.00
2022-10-09T09:23:27.823Z,54.80
2022-10-09T09:25:55.567Z,53.60
2022-10-09T09:28:30.230Z,51.50
2022-10-09T09:31:08.592Z,49.70
2022-10-09T09:33:44.929Z,47.60
2022-10-09T09:36:29.306Z,45.90
2022-10-09T09:39:45.521Z,43.90
2022-10-09T09:41:43.540Z,43.10
2022-10-09T09:44:11.816Z,42.00
2022-10-09T09:46:39.628Z,42.90
2022-10-09T09:49:18.032Z,44.30
2022-10-09T09:51:45.350Z,45.90
2022-10-09T09:54:20.144Z,46.00
2022-10-09T09:59:43.182Z,46.50
2022-10-09T10:02:26.033Z,46.40
2022-10-09T10:04:57.364Z,48.00
2022-10-09T10:07:35.300Z,48.90
2022-10-09T10:10:24.048Z,49.00
2022-10-09T10:12:52.063Z,50.10
2022-10-09T10:15:20.884Z,51.20
2022-10-09T10:17:49.598Z,52.60
2022-10-09T10:20:17.455Z,52.50
2022-10-09T10:22:52.992Z,53.10
2022-10-09T10:25:22.384Z,53.20
2022-10-09T10:27:52.463Z,54.20
2022-10-09T10:30:19.995Z,54.50
2022-10-09T10:33:03.676Z,54.20
2022-10-09T10:35:35.722Z,54.40
2022-10-09T10:38:33.388Z,54.50
2022-10-09T10:41:21.389Z,54.50
2022-10-09T10:44:03.818Z,54.50
2022-10-09T10:46:49.073Z,55.20
2022-10-09T10:49:21.244Z,55.00
2022-10-09T10:52:24.939Z,55.20
2022-10-09T10:55:10.367Z,55.20
2022-10-09T10:57:52.654Z,55.00
2022-10-09T11:00:19.356Z,55.10
2022-10-09T11:03:26.541Z,55.30
2022-10-09T11:06:07.038Z,54.50
2022-10-09T11:08:39.581Z,54.20
2022-10-09T11:11:29.307Z,54.40
2022-10-09T11:14:17.918Z,54.90
2022-10-09T11:17:14.494Z,54.50
2022-10-09T11:20:07.626Z,54.60
2022-10-09T11:23:00.585Z,53.70
2022-10-09T11:25:49.592Z,54.60
2022-10-09T11:28:22.658Z,54.30
2022-10-09T11:30:59.426Z,54.40
2022-10-09T11:33:35.313Z,54.70
2022-10-09T11:36:10.907Z,55.30
2022-10-09T11:38:41.850Z,55.70
2022-10-09T11:41:08.849Z,56.00
2022-10-09T11:43:49.706Z,55.70
2022-10-09T11:46:54.595Z,55.10
2022-10-09T11:49:30.172Z,54.50
2022-10-09T11:52:05.392Z,54.10
2022-10-09T11:54:33.480Z,54.50
2022-10-09T11:57:05.937Z,54.20
2022-10-09T11:59:41.976Z,53.60
2022-10-09T12:02:30.507Z,52.90
2022-10-09T12:04:57.373Z,53.20
2022-10-09T12:07:29.182Z,52.80
2022-10-09T12:10:09.973Z,52.00
2022-10-09T12:12:38.701Z,50.10
2022-10-09T12:15:28.437Z,49.90
2022-10-09T12:17:55.042Z,50.10
2022-10-09T12:20:25.170Z,46.90
2022-10-09T12:23:25.299Z,47.80
2022-10-09T12:25:48.214Z,48.10
2022-10-09T12:28:24.104Z,46.60
2022-10-09T12:30:51.917Z,46.00
2022-10-09T12:33:25.592Z,46.00
2022-10-09T12:36:04.014Z,44.70
2022-10-09T12:38:31.925Z,45.30
2022-10-09T12:41:02.697Z,45.50
2022-10-09T12:43:31.244Z,45.10
2022-10-09T12:45:59.080Z,44.70
2022-10-09T12:48:27.447Z,43.70
2022-10-09T12:50:55.143Z,42.80
2022-10-09T12:53:25.462Z,44.10
2022-10-09T12:55:58.518Z,44.90
2022-10-09T12:58:36.010Z,44.80
2022-10-09T13:01:07.048Z,44.70
2022-10-09T13:03:38.144Z,45.30
2022-10-09T13:06:20.408Z,45.60
2022-10-09T13:08:59.251Z,45.90
2022-10-09T13:11:31.878Z,44.00
2022-10-09T13:13:58.451Z,43.90
2022-10-09T13:16:25.638Z,44.30
2022-10-09T13:19:00.089Z,45.10
2022-10-09T13:21:35.125Z,45.40
2022-10-09T13:24:13.165Z,46.60
2022-10-09T13:26:42.959Z,45.90
2022-10-09T13:29:11.551Z,45.50
2022-10-09T13:31:43.140Z,46.00
2022-10-09T13:34:14.126Z,46.40
2022-10-09T13:36:40.797Z,45.90
2022-10-09T13:39:12.999Z,46.30
2022-10-09T13:41:39.812Z,46.20
2022-10-09T13:44:06.407Z,46.90
2022-10-09T13:46:33.053Z,46.90
2022-10-09T13:48:59.707Z,46.10
2022-10-09T13:51:26.711Z,46.30
2022-10-09T13:53:53.724Z,45.90
2022-10-09T13:56:20.420Z,46.80
2022-10-09T13:58:47.012Z,46.30
2022-10-09T14:01:13.806Z,47.40
2022-10-09T14:03:40.599Z,47.60
2022-10-09T14:06:07.575Z,47.50
2022-10-09T14:08:34.146Z,48.10
2022-10-09T14:11:00.974Z,48.50
2022-10-09T14:13:28.499Z,48.50
2022-10-09T14:15:55.175Z,48.40
2022-10-09T14:18:22.277Z,48.40
2022-10-09T14:20:48.842Z,48.80
2022-10-09T14:23:15.529Z,49.30
2022-10-09T14:25:42.108Z,49.10
2022-10-09T14:28:08.755Z,49.00
2022-10-09T14:30:40.419Z,48.50
2022-10-09T14:33:07.103Z,48.40
2022-10-09T14:35:33.730Z,48.50
2022-10-09T14:38:00.323Z,48.10
2022-10-09T14:40:26.916Z,47.40
2022-10-09T14:42:53.514Z,47.90
2022-10-09T14:45:20.059Z,47.80
2022-10-09T14:47:46.602Z,48.20
2022-10-09T14:50:13.167Z,48.80
2022-10-09T14:52:39.726Z,48.60
2022-10-09T14:55:06.743Z,48.60
2022-10-09T14:57:35.577Z,49.00
2022-10-09T15:00:04.052Z,49.10
2022-10-09T15:02:30.873Z,49.40
2022-10-09T15:04:57.583Z,49.50
2022-10-09T15:07:24.480Z,50.20
2022-10-09T15:09:51.028Z,51.00
2022-10-09T15:12:17.578Z,50.30
2022-10-09T15:15:18.973Z,51.50
2022-10-09T15:17:49.269Z,51.00
2022-10-09T15:20:27.997Z,50.90
2022-10-09T15:22:58.226Z,51.00
2022-10-09T15:25:32.591Z,50.80
2022-10-09T15:34:24.077Z,51.80
2022-10-09T15:39:57.695Z,53.00
2022-10-09T15:42:26.310Z,53.60
2022-10-09T15:45:16.881Z,54.20
2022-10-09T15:50:42.874Z,54.00
2022-10-09T15:56:27.860Z,53.90
2022-10-09T15:58:57.136Z,53.80
2022-10-09T16:01:26.097Z,53.60
2022-10-09T16:04:07.631Z,53.70
2022-10-09T16:06:38.918Z,54.00
2022-10-09T16:09:09.677Z,54.30
2022-10-09T16:11:37.026Z,54.60
2022-10-09T16:22:30.318Z,55.40
2022-10-09T16:27:47.776Z,56.30
2022-10-09T16:30:17.908Z,55.50
2022-10-09T16:35:41.294Z,56.70
2022-10-09T16:38:14.984Z,56.80
2022-10-09T16:41:05.180Z,57.20
2022-10-09T16:47:11.689Z,57.60
2022-10-09T16:52:49.530Z,58.10
2022-10-09T16:55:33.998Z,58.30
2022-10-09T16:58:02.877Z,59.30
2022-10-09T17:09:22.856Z,59.30
2022-10-09T17:11:53.336Z,59.30
2022-10-09T17:14:27.534Z,59.30
2022-10-09T17:17:09.046Z,59.40
2022-10-09T17:19:37.877Z,59.50
2022-10-09T17:22:07.572Z,59.50
2022-10-09T17:24:35.745Z,59.80
2022-10-09T17:27:09.144Z,60.00
2022-10-09T17:30:14.275Z,60.20
2022-10-09T17:32:41.672Z,60.50
2022-10-09T17:35:11.718Z,60.40
2022-10-09T17:40:45.215Z,60.60
2022-10-09T17:43:16.385Z,60.80
2022-10-09T17:45:46.086Z,61.10
2022-10-09T17:48:13.344Z,61.30
2022-10-09T17:50:39.979Z,61.60
2022-10-09T17:53:09.394Z,61.70
2022-10-09T17:55:38.479Z,61.90
2022-10-09T17:58:05.075Z,62.20
2022-10-09T18:00:31.856Z,62.40
2022-10-09T18:02:58.503Z,62.60
2022-10-09T18:05:25.220Z,62.70
2022-10-09T18:07:55.438Z,63.00
2022-10-09T18:10:22.139Z,63.30
2022-10-09T18:12:48.875Z,63.40
2022-10-09T18:15:15.626Z,63.50
2022-10-09T18:17:44.281Z,63.70
2022-10-09T18:20:15.319Z,63.70
2022-10-09T18:22:41.965Z,63.60
2022-10-09T18:25:08.984Z,63.70
2022-10-09T18:27:35.693Z,63.60
2022-10-09T18:30:03.051Z,63.70
2022-10-09T18:32:29.919Z,63.90
2022-10-09T18:34:56.874Z,64.00
2022-10-09T18:37:26.932Z,64.00
2022-10-09T18:39:53.918Z,64.10
2022-10-09T18:42:29.363Z,64.30
2022-10-09T18:44:56.519Z,64.40
2022-10-09T18:47:32.688Z,64.30
2022-10-09T18:50:02.707Z,64.40
2022-10-09T18:52:38.093Z,64.40
2022-10-09T18:55:11.503Z,64.50
2022-10-09T18:58:05.355Z,64.70
2022-10-09T19:00:32.560Z,64.80
2022-10-09T19:03:05.339Z,64.80
2022-10-09T19:08:20.162Z,65.00
2022-10-09T19:11:02.806Z,65.20
2022-10-09T19:13:33.175Z,65.20
2022-10-09T19:16:01.161Z,65.30
2022-10-09T19:19:12.430Z,65.40
2022-10-09T19:21:47.810Z,65.70
2022-10-09T19:24:39.130Z,65.70
2022-10-09T19:30:23.688Z,65.90
2022-10-09T19:40:11.869Z,66.20
2022-10-09T19:42:51.078Z,66.30
2022-10-09T19:45:22.099Z,66.30
2022-10-09T19:48:01.483Z,66.40
2022-10-09T19:53:16.351Z,66.60
2022-10-09T19:55:43.766Z,66.50
2022-10-09T19:58:11.056Z,66.60
2022-10-09T20:00:44.943Z,66.70
2022-10-09T20:03:14.926Z,66.90
2022-10-09T20:05:49.731Z,67.00
2022-10-09T20:08:16.782Z,67.00
2022-10-09T20:10:43.902Z,67.10
2022-10-09T20:13:10.831Z,67.10
2022-10-09T20:15:51.220Z,67.30
2022-10-09T20:18:19.365Z,67.30
2022-10-09T20:20:48.083Z,67.30
2022-10-09T20:23:15.741Z,67.50
2022-10-09T20:25:42.863Z,67.60
2022-10-09T20:28:12.043Z,67.60
2022-10-09T20:30:41.965Z,67.70
2022-10-09T20:33:10.711Z,67.80
2022-10-09T20:35:58.183Z,67.80
2022-10-09T20:38:29.212Z,67.90
2022-10-09T20:41:09.255Z,67.90
2022-10-09T20:43:40.327Z,68.00
2022-10-09T20:46:09.066Z,68.00
2022-10-09T20:48:35.864Z,68.10
2022-10-09T20:53:55.899Z,68.30
2022-10-09T20:56:28.888Z,68.30
2022-10-09T20:59:04.018Z,68.40
2022-10-09T21:01:33.242Z,68.50
2022-10-09T21:04:06.701Z,68.50
2022-10-09T21:06:35.804Z,68.50
2022-10-09T21:09:03.332Z,68.50
2022-10-09T21:11:34.911Z,68.50
2022-10-09T21:14:09.191Z,68.60
2022-10-09T21:16:35.812Z,68.70
2022-10-09T21:19:04.648Z,68.70
2022-10-09T21:21:31.715Z,68.70
2022-10-09T21:23:59.571Z,68.70
2022-10-09T21:26:27.383Z,68.70
2022-10-09T21:28:59.021Z,68.70
2022-10-09T21:31:28.447Z,68.70
2022-10-09T21:33:55.941Z,68.70
2022-10-09T21:36:25.292Z,68.70
2022-10-09T21:38:51.873Z,68.70
2022-10-09T21:41:18.443Z,68.80
2022-10-09T21:43:45.004Z,68.90
2022-10-09T21:46:11.601Z,68.90
2022-10-09T21:48:38.252Z,68.90
2022-10-09T21:51:04.983Z,68.90
2022-10-09T21:53:31.931Z,68.90
2022-10-09T21:55:58.491Z,68.90
2022-10-09T21:58:25.116Z,69.00
2022-10-09T22:00:56.172Z,69.10
2022-10-09T22:03:24.772Z,69.10
2022-10-09T22:05:51.470Z,69.10
2022-10-09T22:08:18.209Z,69.20
2022-10-09T22:10:44.995Z,69.20
2022-10-09T22:13:11.779Z,69.20
2022-10-09T22:15:42.317Z,69.30
2022-10-09T22:18:09.163Z,69.30
2022-10-09T22:20:43.472Z,69.20
2022-10-09T22:23:10.277Z,69.30
2022-10-09T22:25:36.903Z,69.30
2022-10-09T22:28:03.927Z,69.30
2022-10-09T22:30:30.962Z,69.30
2022-10-09T22:32:57.511Z,69.30
2022-10-09T22:35:24.538Z,69.30
2022-10-09T22:37:51.147Z,69.40
2022-10-09T22:40:17.976Z,69.50
2022-10-09T22:42:44.807Z,69.50
2022-10-09T22:45:11.399Z,69.50
2022-10-09T22:47:37.940Z,69.60
2022-10-09T22:50:04.661Z,69.50
2022-10-09T22:52:31.230Z,69.50
2022-10-09T22:54:57.903Z,69.50
2022-10-09T22:57:24.481Z,69.60
2022-10-09T22:59:51.017Z,69.70
2022-10-09T23:02:17.571Z,69.70
2022-10-09T23:04:44.123Z,69.70
2022-10-09T23:07:10.711Z,69.70
2022-10-09T23:09:37.254Z,69.80
2022-10-09T23:12:04.113Z,69.80
2022-10-09T23:14:30.796Z,69.90
2022-10-09T23:16:57.404Z,69.90
2022-10-09T23:19:23.957Z,69.90
2022-10-09T23:21:50.544Z,69.90
2022-10-09T23:24:17.787Z,70.00
2022-10-09T23:26:45.955Z,70.00
2022-10-09T23:29:15.872Z,70.00
2022-10-09T23:31:42.971Z,70.00
2022-10-09T23:34:09.683Z,70.10
2022-10-09T23:36:36.297Z,70.10
2022-10-09T23:39:05.034Z,70.20
2022-10-09T23:41:31.884Z,70.10
2022-10-09T23:43:58.455Z,70.20
2022-10-09T23:46:28.300Z,70.30
2022-10-09T23:48:55.689Z,70.40
2022-10-09T23:51:24.182Z,70.40
2022-10-09T23:53:51.156Z,70.40
2022-10-09T23:56:24.951Z,70.40
2022-10-09T23:58:52.140Z,70.40
